sensor_id;sensor_type;location;lat;lon;timestamp;temperature;humidity
5492;DHT22;2768;53.540;10.224;2022-12-26T00:01:53;7.10;99.90
5492;DHT22;2768;53.540;10.224;2022-12-26T00:07:47;7.00;99.90
5492;DHT22;2768;53.540;10.224;2022-12-26T00:13:41;7.10;99.90
5492;DHT22;2768;53.540;10.224;2022-12-26T00:19:36;7.10;99.90
5492;DHT22;2768;53.540;10.224;2022-12-26T00:25:29;7.20;99.90
5492;DHT22;2768;53.540;10.224;2022-12-26T00:31:27;7.10;99.90
5492;DHT22;2768;53.540;10.224;2022-12-26T00:37:22;7.10;99.90
5492;DHT22;2768;53.540;10.224;2022-12-26T00:43:15;7.00;99.90
5492;DHT22;2768;53.540;10.224;2022-12-26T00:49:09;7.00;99.90
5492;DHT22;2768;53.540;10.224;2022-12-26T00:55:05;6.80;99.90
5492;DHT22;2768;53.540;10.224;2022-12-26T01:01:05;6.70;99.90
5492;DHT22;2768;53.540;10.224;2022-12-26T01:06:58;6.90;99.90
5492;DHT22;2768;53.540;10.224;2022-12-26T01:12:53;6.90;99.90
5492;DHT22;2768;53.540;10.224;2022-12-26T01:18:47;6.90;99.90
5492;DHT22;2768;53.540;10.224;2022-12-26T01:24:40;6.90;99.90
5492;DHT22;2768;53.540;10.224;2022-12-26T01:30:36;6.90;99.90
5492;DHT22;2768;53.540;10.224;2022-12-26T01:36:29;6.80;99.90
5492;DHT22;2768;53.540;10.224;2022-12-26T01:42:24;6.80;99.90
5492;DHT22;2768;53.540;10.224;2022-12-26T01:48:20;6.90;99.90
5492;DHT22;2768;53.540;10.224;2022-12-26T01:54:15;6.80;99.90
5492;DHT22;2768;53.540;10.224;2022-12-26T02:00:28;6.70;99.90
5492;DHT22;2768;53.540;10.224;2022-12-26T02:06:24;6.80;99.90
5492;DHT22;2768;53.540;10.224;2022-12-26T02:12:20;6.70;99.90
5492;DHT22;2768;53.540;10.224;2022-12-26T02:18:29;6.90;99.90
5492;DHT22;2768;53.540;10.224;2022-12-26T02:24:41;6.80;99.90
5492;DHT22;2768;53.540;10.224;2022-12-26T02:30:44;6.80;99.90
5492;DHT22;2768;53.540;10.224;2022-12-26T02:37:09;6.80;99.90
5492;DHT22;2768;53.540;10.224;2022-12-26T02:43:10;6.80;99.90
5492;DHT22;2768;53.540;10.224;2022-12-26T02:49:15;6.90;99.90
5492;DHT22;2768;53.540;10.224;2022-12-26T02:55:15;6.80;99.90
5492;DHT22;2768;53.540;10.224;2022-12-26T03:01:30;7.00;99.90
5492;DHT22;2768;53.540;10.224;2022-12-26T03:07:45;6.90;99.90
5492;DHT22;2768;53.540;10.224;2022-12-26T03:14:04;6.90;99.90
5492;DHT22;2768;53.540;10.224;2022-12-26T03:20:03;7.00;99.90
5492;DHT22;2768;53.540;10.224;2022-12-26T03:26:02;7.00;99.90
5492;DHT22;2768;53.540;10.224;2022-12-26T03:32:15;7.00;99.90
5492;DHT22;2768;53.540;10.224;2022-12-26T03:38:12;7.00;99.90
5492;DHT22;2768;53.540;10.224;2022-12-26T03:44:19;7.00;99.90
5492;DHT22;2768;53.540;10.224;2022-12-26T03:50:34;7.00;99.90
5492;DHT22;2768;53.540;10.224;2022-12-26T03:56:51;7.00;99.90
5492;DHT22;2768;53.540;10.224;2022-12-26T04:03:09;7.10;99.90
5492;DHT22;2768;53.540;10.224;2022-12-26T04:09:25;7.10;99.90
5492;DHT22;2768;53.540;10.224;2022-12-26T04:15:43;7.20;99.90
5492;DHT22;2768;53.540;10.224;2022-12-26T04:22:03;7.20;99.90
5492;DHT22;2768;53.540;10.224;2022-12-26T04:28:16;7.30;99.90
5492;DHT22;2768;53.540;10.224;2022-12-26T04:34:40;7.20;99.90
5492;DHT22;2768;53.540;10.224;2022-12-26T04:40:58;7.30;99.90
5492;DHT22;2768;53.540;10.224;2022-12-26T04:47:10;7.40;99.90
5492;DHT22;2768;53.540;10.224;2022-12-26T04:53:03;7.30;99.90
5492;DHT22;2768;53.540;10.224;2022-12-26T04:58:58;7.40;99.90
5492;DHT22;2768;53.540;10.224;2022-12-26T05:04:52;7.30;99.90
5492;DHT22;2768;53.540;10.224;2022-12-26T05:11:03;7.40;99.90
5492;DHT22;2768;53.540;10.224;2022-12-26T05:16:58;7.40;99.90
5492;DHT22;2768;53.540;10.224;2022-12-26T05:23:15;7.40;99.90
5492;DHT22;2768;53.540;10.224;2022-12-26T05:29:27;7.40;99.90
5492;DHT22;2768;53.540;10.224;2022-12-26T05:35:22;7.40;99.90
5492;DHT22;2768;53.540;10.224;2022-12-26T05:41:16;7.40;99.90
5492;DHT22;2768;53.540;10.224;2022-12-26T05:47:09;7.40;99.90
5492;DHT22;2768;53.540;10.224;2022-12-26T05:53:04;7.40;99.90
5492;DHT22;2768;53.540;10.224;2022-12-26T05:58:59;7.40;99.90
5492;DHT22;2768;53.540;10.224;2022-12-26T06:04:53;7.50;99.90
5492;DHT22;2768;53.540;10.224;2022-12-26T06:10:48;7.50;99.90
5492;DHT22;2768;53.540;10.224;2022-12-26T06:16:41;7.50;99.90
5492;DHT22;2768;53.540;10.224;2022-12-26T06:22:36;7.40;99.90
5492;DHT22;2768;53.540;10.224;2022-12-26T06:28:32;7.40;99.90
5492;DHT22;2768;53.540;10.224;2022-12-26T06:34:26;7.40;99.90
5492;DHT22;2768;53.540;10.224;2022-12-26T06:40:19;7.60;99.90
5492;DHT22;2768;53.540;10.224;2022-12-26T06:46:15;7.60;99.90
5492;DHT22;2768;53.540;10.224;2022-12-26T06:52:09;7.60;99.90
5492;DHT22;2768;53.540;10.224;2022-12-26T06:58:03;7.60;99.90
5492;DHT22;2768;53.540;10.224;2022-12-26T07:03:58;7.60;99.90
5492;DHT22;2768;53.540;10.224;2022-12-26T07:09:51;7.70;99.90
5492;DHT22;2768;53.540;10.224;2022-12-26T07:15:45;7.70;99.90
5492;DHT22;2768;53.540;10.224;2022-12-26T07:21:39;7.70;99.90
5492;DHT22;2768;53.540;10.224;2022-12-26T07:27:33;7.70;99.90
5492;DHT22;2768;53.540;10.224;2022-12-26T07:33:27;7.80;99.90
5492;DHT22;2768;53.540;10.224;2022-12-26T07:39:26;7.70;99.90
5492;DHT22;2768;53.540;10.224;2022-12-26T07:45:20;7.80;99.90
5492;DHT22;2768;53.540;10.224;2022-12-26T07:51:13;7.90;99.90
5492;DHT22;2768;53.540;10.224;2022-12-26T07:57:08;7.90;99.90
5492;DHT22;2768;53.540;10.224;2022-12-26T08:03:22;7.80;99.90
5492;DHT22;2768;53.540;10.224;2022-12-26T08:09:15;7.90;99.90
5492;DHT22;2768;53.540;10.224;2022-12-26T08:15:10;8.00;99.90
5492;DHT22;2768;53.540;10.224;2022-12-26T08:21:04;8.00;99.90
5492;DHT22;2768;53.540;10.224;2022-12-26T08:26:57;8.00;99.90
5492;DHT22;2768;53.540;10.224;2022-12-26T08:32:51;8.00;99.90
5492;DHT22;2768;53.540;10.224;2022-12-26T08:38:44;8.00;99.90
5492;DHT22;2768;53.540;10.224;2022-12-26T08:44:37;8.10;99.90
5492;DHT22;2768;53.540;10.224;2022-12-26T08:50:32;8.10;99.90
5492;DHT22;2768;53.540;10.224;2022-12-26T08:56:32;8.10;99.90
5492;DHT22;2768;53.540;10.224;2022-12-26T09:02:25;8.10;99.90
5492;DHT22;2768;53.540;10.224;2022-12-26T09:08:19;8.10;99.90
5492;DHT22;2768;53.540;10.224;2022-12-26T09:14:13;8.20;99.90
5492;DHT22;2768;53.540;10.224;2022-12-26T09:20:07;8.30;99.90
5492;DHT22;2768;53.540;10.224;2022-12-26T09:26:07;8.40;99.90
5492;DHT22;2768;53.540;10.224;2022-12-26T09:32:00;8.40;99.90
5492;DHT22;2768;53.540;10.224;2022-12-26T09:37:53;8.30;99.90
5492;DHT22;2768;53.540;10.224;2022-12-26T09:43:56;8.40;99.90
5492;DHT22;2768;53.540;10.224;2022-12-26T09:49:55;8.40;99.90
5492;DHT22;2768;53.540;10.224;2022-12-26T09:55:53;8.50;99.90
5492;DHT22;2768;53.540;10.224;2022-12-26T10:01:49;8.60;99.90
5492;DHT22;2768;53.540;10.224;2022-12-26T10:07:47;8.60;99.90
5492;DHT22;2768;53.540;10.224;2022-12-26T10:13:47;8.70;99.90
5492;DHT22;2768;53.540;10.224;2022-12-26T10:19:52;8.70;99.90
5492;DHT22;2768;53.540;10.224;2022-12-26T10:25:52;8.80;99.90
5492;DHT22;2768;53.540;10.224;2022-12-26T10:31:51;8.70;99.90
5492;DHT22;2768;53.540;10.224;2022-12-26T10:37:47;8.80;99.90
5492;DHT22;2768;53.540;10.224;2022-12-26T10:43:42;8.80;99.90
5492;DHT22;2768;53.540;10.224;2022-12-26T10:49:36;8.80;99.90
5492;DHT22;2768;53.540;10.224;2022-12-26T10:55:32;8.80;99.90
5492;DHT22;2768;53.540;10.224;2022-12-26T11:01:32;8.80;99.90
5492;DHT22;2768;53.540;10.224;2022-12-26T11:07:29;8.90;99.90
5492;DHT22;2768;53.540;10.224;2022-12-26T11:13:24;8.90;99.90
5492;DHT22;2768;53.540;10.224;2022-12-26T11:19:26;8.90;99.90
5492;DHT22;2768;53.540;10.224;2022-12-26T11:25:22;9.00;99.90
5492;DHT22;2768;53.540;10.224;2022-12-26T11:31:23;9.00;99.90
5492;DHT22;2768;53.540;10.224;2022-12-26T11:37:23;9.00;99.90
5492;DHT22;2768;53.540;10.224;2022-12-26T11:43:18;9.00;99.90
5492;DHT22;2768;53.540;10.224;2022-12-26T11:49:21;9.00;99.90
5492;DHT22;2768;53.540;10.224;2022-12-26T11:55:31;9.10;99.90
5492;DHT22;2768;53.540;10.224;2022-12-26T12:01:25;9.10;96.90
5492;DHT22;2768;53.540;10.224;2022-12-26T12:07:42;9.10;92.00
5492;DHT22;2768;53.540;10.224;2022-12-26T12:13:48;9.10;89.10
5492;DHT22;2768;53.540;10.224;2022-12-26T12:20:01;9.20;79.60
5492;DHT22;2768;53.540;10.224;2022-12-26T12:26:04;9.10;92.00
5492;DHT22;2768;53.540;10.224;2022-12-26T12:32:06;9.00;99.90
5492;DHT22;2768;53.540;10.224;2022-12-26T12:38:26;8.90;99.90
5492;DHT22;2768;53.540;10.224;2022-12-26T12:44:26;8.90;99.90
5492;DHT22;2768;53.540;10.224;2022-12-26T12:50:27;8.90;99.90
5492;DHT22;2768;53.540;10.224;2022-12-26T12:56:29;9.00;99.90
5492;DHT22;2768;53.540;10.224;2022-12-26T13:02:44;9.10;99.90
5492;DHT22;2768;53.540;10.224;2022-12-26T13:08:43;9.10;99.90
5492;DHT22;2768;53.540;10.224;2022-12-26T13:14:41;9.10;99.90
5492;DHT22;2768;53.540;10.224;2022-12-26T13:20:40;9.10;99.90
5492;DHT22;2768;53.540;10.224;2022-12-26T13:26:36;9.20;99.90
5492;DHT22;2768;53.540;10.224;2022-12-26T13:32:31;9.30;97.30
5492;DHT22;2768;53.540;10.224;2022-12-26T13:51:53;9.60;1.00
5492;DHT22;2768;53.540;10.224;2022-12-26T13:58:19;9.50;1.00
5492;DHT22;2768;53.540;10.224;2022-12-26T14:04:28;9.20;1.00
5492;DHT22;2768;53.540;10.224;2022-12-26T14:10:31;9.00;1.00
5492;DHT22;2768;53.540;10.224;2022-12-26T14:16:34;8.80;1.00
5492;DHT22;2768;53.540;10.224;2022-12-26T14:22:38;8.60;1.00
5492;DHT22;2768;53.540;10.224;2022-12-26T14:28:46;8.40;1.00
5492;DHT22;2768;53.540;10.224;2022-12-26T14:34:52;8.20;1.00
5492;DHT22;2768;53.540;10.224;2022-12-26T14:40:59;8.00;1.00
5492;DHT22;2768;53.540;10.224;2022-12-26T14:46:57;7.80;1.00
5492;DHT22;2768;53.540;10.224;2022-12-26T14:52:52;7.60;1.00
5492;DHT22;2768;53.540;10.224;2022-12-26T14:58:46;7.50;1.00
5492;DHT22;2768;53.540;10.224;2022-12-26T15:05:01;7.50;1.00
5492;DHT22;2768;53.540;10.224;2022-12-26T15:17:35;7.20;1.00
5492;DHT22;2768;53.540;10.224;2022-12-26T15:23:55;6.90;1.00
5492;DHT22;2768;53.540;10.224;2022-12-26T15:30:10;6.80;1.00
5492;DHT22;2768;53.540;10.224;2022-12-26T15:36:15;6.80;1.00
5492;DHT22;2768;53.540;10.224;2022-12-26T15:42:22;6.80;1.00
5492;DHT22;2768;53.540;10.224;2022-12-26T15:48:31;6.80;1.00
5492;DHT22;2768;53.540;10.224;2022-12-26T15:54:49;6.80;1.00
5492;DHT22;2768;53.540;10.224;2022-12-26T16:00:48;6.70;1.00
5492;DHT22;2768;53.540;10.224;2022-12-26T16:07:01;6.70;1.00
5492;DHT22;2768;53.540;10.224;2022-12-26T16:12:58;6.60;1.00
5492;DHT22;2768;53.540;10.224;2022-12-26T16:18:53;6.50;1.00
5492;DHT22;2768;53.540;10.224;2022-12-26T16:24:49;6.50;1.00
5492;DHT22;2768;53.540;10.224;2022-12-26T16:30:43;6.40;1.00
5492;DHT22;2768;53.540;10.224;2022-12-26T16:36:37;6.40;1.00
5492;DHT22;2768;53.540;10.224;2022-12-26T16:42:32;6.40;1.00
5492;DHT22;2768;53.540;10.224;2022-12-26T16:48:27;6.30;1.00
5492;DHT22;2768;53.540;10.224;2022-12-26T16:54:27;6.30;1.00
5492;DHT22;2768;53.540;10.224;2022-12-26T17:00:22;6.20;1.00
5492;DHT22;2768;53.540;10.224;2022-12-26T17:06:23;6.10;1.00
5492;DHT22;2768;53.540;10.224;2022-12-26T17:12:22;6.10;1.00
5492;DHT22;2768;53.540;10.224;2022-12-26T17:18:38;6.20;1.00
5492;DHT22;2768;53.540;10.224;2022-12-26T17:24:33;6.10;1.00
5492;DHT22;2768;53.540;10.224;2022-12-26T17:30:27;6.10;1.00
5492;DHT22;2768;53.540;10.224;2022-12-26T17:36:26;6.00;1.00
5492;DHT22;2768;53.540;10.224;2022-12-26T17:42:46;6.00;1.00
5492;DHT22;2768;53.540;10.224;2022-12-26T17:48:41;5.90;1.00
5492;DHT22;2768;53.540;10.224;2022-12-26T17:54:36;5.90;1.00
5492;DHT22;2768;53.540;10.224;2022-12-26T18:00:29;5.90;1.00
5492;DHT22;2768;53.540;10.224;2022-12-26T18:06:23;5.90;1.00
5492;DHT22;2768;53.540;10.224;2022-12-26T18:12:18;5.80;1.00
5492;DHT22;2768;53.540;10.224;2022-12-26T18:18:20;5.80;1.00
5492;DHT22;2768;53.540;10.224;2022-12-26T18:24:14;5.70;1.00
5492;DHT22;2768;53.540;10.224;2022-12-26T18:30:13;5.70;1.00
5492;DHT22;2768;53.540;10.224;2022-12-26T18:36:09;5.60;1.00
5492;DHT22;2768;53.540;10.224;2022-12-26T18:42:04;5.60;1.00
5492;DHT22;2768;53.540;10.224;2022-12-26T18:48:00;5.50;1.00
5492;DHT22;2768;53.540;10.224;2022-12-26T18:53:54;5.40;1.00
5492;DHT22;2768;53.540;10.224;2022-12-26T18:59:47;5.40;1.00
5492;DHT22;2768;53.540;10.224;2022-12-26T19:05:42;5.30;1.00
5492;DHT22;2768;53.540;10.224;2022-12-26T19:11:35;5.20;1.00
5492;DHT22;2768;53.540;10.224;2022-12-26T19:17:29;5.20;1.00
5492;DHT22;2768;53.540;10.224;2022-12-26T19:23:23;5.10;1.00
5492;DHT22;2768;53.540;10.224;2022-12-26T19:29:16;5.10;1.00
5492;DHT22;2768;53.540;10.224;2022-12-26T19:35:12;5.10;1.00
5492;DHT22;2768;53.540;10.224;2022-12-26T19:41:09;5.00;1.00
5492;DHT22;2768;53.540;10.224;2022-12-26T19:47:03;5.00;1.00
5492;DHT22;2768;53.540;10.224;2022-12-26T19:53:04;5.00;1.00
5492;DHT22;2768;53.540;10.224;2022-12-26T19:59:02;4.90;1.00
5492;DHT22;2768;53.540;10.224;2022-12-26T20:04:55;4.80;1.00
5492;DHT22;2768;53.540;10.224;2022-12-26T20:10:49;4.80;1.00
5492;DHT22;2768;53.540;10.224;2022-12-26T20:16:53;4.80;1.00
5492;DHT22;2768;53.540;10.224;2022-12-26T20:22:58;4.80;1.00
5492;DHT22;2768;53.540;10.224;2022-12-26T20:28:55;4.80;1.00
5492;DHT22;2768;53.540;10.224;2022-12-26T20:34:50;4.70;1.00
5492;DHT22;2768;53.540;10.224;2022-12-26T20:40:44;4.70;1.00
5492;DHT22;2768;53.540;10.224;2022-12-26T20:46:41;4.70;1.00
5492;DHT22;2768;53.540;10.224;2022-12-26T20:52:36;4.60;1.00
5492;DHT22;2768;53.540;10.224;2022-12-26T20:58:31;4.60;1.00
5492;DHT22;2768;53.540;10.224;2022-12-26T21:04:26;4.50;1.00
5492;DHT22;2768;53.540;10.224;2022-12-26T21:10:21;4.50;1.00
5492;DHT22;2768;53.540;10.224;2022-12-26T21:16:16;4.50;1.00
5492;DHT22;2768;53.540;10.224;2022-12-26T21:22:10;4.40;1.00
5492;DHT22;2768;53.540;10.224;2022-12-26T21:28:05;4.40;1.00
5492;DHT22;2768;53.540;10.224;2022-12-26T21:33:59;4.40;1.00
5492;DHT22;2768;53.540;10.224;2022-12-26T21:39:53;4.50;1.00
5492;DHT22;2768;53.540;10.224;2022-12-26T21:45:48;4.50;1.00
5492;DHT22;2768;53.540;10.224;2022-12-26T21:51:47;4.50;1.00
5492;DHT22;2768;53.540;10.224;2022-12-26T21:57:41;4.50;1.00
5492;DHT22;2768;53.540;10.224;2022-12-26T22:03:37;4.50;1.00
5492;DHT22;2768;53.540;10.224;2022-12-26T22:09:51;4.50;1.00
5492;DHT22;2768;53.540;10.224;2022-12-26T22:15:45;4.40;1.00
5492;DHT22;2768;53.540;10.224;2022-12-26T22:22:00;4.30;1.00
5492;DHT22;2768;53.540;10.224;2022-12-26T22:27:53;4.30;1.00
5492;DHT22;2768;53.540;10.224;2022-12-26T22:33:46;4.30;1.00
5492;DHT22;2768;53.540;10.224;2022-12-26T22:39:41;4.20;1.00
5492;DHT22;2768;53.540;10.224;2022-12-26T22:45:38;4.20;1.00
5492;DHT22;2768;53.540;10.224;2022-12-26T22:51:33;4.20;1.00
5492;DHT22;2768;53.540;10.224;2022-12-26T22:57:28;4.10;1.00
5492;DHT22;2768;53.540;10.224;2022-12-26T23:03:22;4.00;1.00
5492;DHT22;2768;53.540;10.224;2022-12-26T23:09:16;4.00;1.00
5492;DHT22;2768;53.540;10.224;2022-12-26T23:15:13;4.00;1.00
5492;DHT22;2768;53.540;10.224;2022-12-26T23:21:22;4.10;1.00
5492;DHT22;2768;53.540;10.224;2022-12-26T23:27:33;4.10;1.00
5492;DHT22;2768;53.540;10.224;2022-12-26T23:33:45;4.10;1.00
5492;DHT22;2768;53.540;10.224;2022-12-26T23:39:38;4.00;1.00
5492;DHT22;2768;53.540;10.224;2022-12-26T23:45:31;4.00;1.00
5492;DHT22;2768;53.540;10.224;2022-12-26T23:51:26;4.00;1.00
5492;DHT22;2768;53.540;10.224;2022-12-26T23:57:19;4.00;1.00
